sensor_id;sensor_type;location;lat;lon;timestamp;P1;durP1;ratioP1;P2;durP2;ratioP2
14139;SDS011;7150;53.514;9.988;2022-09-17T00:00:24;18.67;;;4.07;;
14139;SDS011;7150;53.514;9.988;2022-09-17T00:02:50;12.53;;;3.40;;
14139;SDS011;7150;53.514;9.988;2022-09-17T00:05:19;11.43;;;2.53;;
14139;SDS011;7150;53.514;9.988;2022-09-17T00:07:48;8.33;;;2.90;;
14139;SDS011;7150;53.514;9.988;2022-09-17T00:10:15;11.75;;;2.53;;
14139;SDS011;7150;53.514;9.988;2022-09-17T00:12:41;17.67;;;3.53;;
14139;SDS011;7150;53.514;9.988;2022-09-17T00:15:06;11.47;;;2.77;;
14139;SDS011;7150;53.514;9.988;2022-09-17T00:17:32;17.63;;;2.77;;
14139;SDS011;7150;53.514;9.988;2022-09-17T00:19:58;11.90;;;3.47;;
14139;SDS011;7150;53.514;9.988;2022-09-17T00:22:23;6.33;;;1.97;;
14139;SDS011;7150;53.514;9.988;2022-09-17T00:24:49;11.87;;;2.40;;
14139;SDS011;7150;53.514;9.988;2022-09-17T00:27:14;14.50;;;2.93;;
14139;SDS011;7150;53.514;9.988;2022-09-17T00:29:40;8.37;;;2.90;;
14139;SDS011;7150;53.514;9.988;2022-09-17T00:32:05;10.43;;;2.53;;
14139;SDS011;7150;53.514;9.988;2022-09-17T00:34:31;10.90;;;2.40;;
14139;SDS011;7150;53.514;9.988;2022-09-17T00:36:56;10.90;;;2.77;;
14139;SDS011;7150;53.514;9.988;2022-09-17T00:39:22;10.27;;;2.47;;
14139;SDS011;7150;53.514;9.988;2022-09-17T00:41:47;8.23;;;2.33;;
14139;SDS011;7150;53.514;9.988;2022-09-17T00:52:41;8.03;;;3.13;;
14139;SDS011;7150;53.514;9.988;2022-09-17T00:55:15;10.77;;;2.67;;
14139;SDS011;7150;53.514;9.988;2022-09-17T00:57:51;11.40;;;2.20;;
14139;SDS011;7150;53.514;9.988;2022-09-17T01:00:19;10.20;;;2.50;;
14139;SDS011;7150;53.514;9.988;2022-09-17T01:02:45;10.97;;;3.03;;
14139;SDS011;7150;53.514;9.988;2022-09-17T01:05:11;10.83;;;2.67;;
14139;SDS011;7150;53.514;9.988;2022-09-17T01:07:41;13.90;;;2.13;;
14139;SDS011;7150;53.514;9.988;2022-09-17T01:16:05;12.53;;;2.73;;
14139;SDS011;7150;53.514;9.988;2022-09-17T01:18:51;9.23;;;2.73;;
14139;SDS011;7150;53.514;9.988;2022-09-17T01:21:43;7.10;;;1.93;;
14139;SDS011;7150;53.514;9.988;2022-09-17T01:24:29;15.50;;;2.87;;
14139;SDS011;7150;53.514;9.988;2022-09-17T01:27:10;10.97;;;1.97;;
14139;SDS011;7150;53.514;9.988;2022-09-17T01:32:44;7.97;;;1.80;;
14139;SDS011;7150;53.514;9.988;2022-09-17T01:35:36;11.47;;;2.10;;
14139;SDS011;7150;53.514;9.988;2022-09-17T01:38:26;11.97;;;2.50;;
14139;SDS011;7150;53.514;9.988;2022-09-17T01:44:01;12.03;;;2.90;;
14139;SDS011;7150;53.514;9.988;2022-09-17T01:46:45;8.97;;;2.67;;
14139;SDS011;7150;53.514;9.988;2022-09-17T01:49:15;10.80;;;2.20;;
14139;SDS011;7150;53.514;9.988;2022-09-17T01:51:43;10.03;;;2.87;;
14139;SDS011;7150;53.514;9.988;2022-09-17T01:54:27;11.97;;;2.53;;
14139;SDS011;7150;53.514;9.988;2022-09-17T01:57:04;10.20;;;2.73;;
14139;SDS011;7150;53.514;9.988;2022-09-17T01:59:35;10.17;;;2.40;;
14139;SDS011;7150;53.514;9.988;2022-09-17T02:02:13;8.03;;;2.37;;
14139;SDS011;7150;53.514;9.988;2022-09-17T02:04:51;11.03;;;2.83;;
14139;SDS011;7150;53.514;9.988;2022-09-17T02:07:23;7.20;;;2.00;;
14139;SDS011;7150;53.514;9.988;2022-09-17T02:09:52;7.77;;;2.00;;
14139;SDS011;7150;53.514;9.988;2022-09-17T02:12:27;11.20;;;2.80;;
14139;SDS011;7150;53.514;9.988;2022-09-17T02:14:57;13.27;;;2.60;;
14139;SDS011;7150;53.514;9.988;2022-09-17T02:17:38;11.17;;;3.20;;
14139;SDS011;7150;53.514;9.988;2022-09-17T02:20:09;11.50;;;2.27;;
14139;SDS011;7150;53.514;9.988;2022-09-17T02:22:37;6.90;;;2.13;;
14139;SDS011;7150;53.514;9.988;2022-09-17T02:28:04;10.57;;;2.53;;
14139;SDS011;7150;53.514;9.988;2022-09-17T02:30:37;10.70;;;2.30;;
14139;SDS011;7150;53.514;9.988;2022-09-17T02:33:03;5.37;;;2.17;;
14139;SDS011;7150;53.514;9.988;2022-09-17T02:35:31;7.53;;;2.27;;
14139;SDS011;7150;53.514;9.988;2022-09-17T02:37:57;9.83;;;2.00;;
14139;SDS011;7150;53.514;9.988;2022-09-17T02:40:24;8.30;;;2.37;;
14139;SDS011;7150;53.514;9.988;2022-09-17T02:42:57;10.33;;;2.20;;
14139;SDS011;7150;53.514;9.988;2022-09-17T02:56:47;8.50;;;2.30;;
14139;SDS011;7150;53.514;9.988;2022-09-17T02:59:28;10.23;;;2.33;;
14139;SDS011;7150;53.514;9.988;2022-09-17T03:01:55;8.17;;;2.07;;
14139;SDS011;7150;53.514;9.988;2022-09-17T03:04:32;8.40;;;1.83;;
14139;SDS011;7150;53.514;9.988;2022-09-17T03:06:58;7.93;;;2.27;;
14139;SDS011;7150;53.514;9.988;2022-09-17T03:09:29;10.63;;;2.37;;
14139;SDS011;7150;53.514;9.988;2022-09-17T03:11:54;7.33;;;2.40;;
14139;SDS011;7150;53.514;9.988;2022-09-17T03:14:20;7.57;;;2.30;;
14139;SDS011;7150;53.514;9.988;2022-09-17T03:16:45;8.37;;;1.97;;
14139;SDS011;7150;53.514;9.988;2022-09-17T03:19:11;11.93;;;2.10;;
14139;SDS011;7150;53.514;9.988;2022-09-17T03:21:37;6.20;;;2.00;;
14139;SDS011;7150;53.514;9.988;2022-09-17T03:24:02;9.27;;;1.93;;
14139;SDS011;7150;53.514;9.988;2022-09-17T03:26:28;8.83;;;2.00;;
14139;SDS011;7150;53.514;9.988;2022-09-17T03:28:53;8.47;;;2.43;;
14139;SDS011;7150;53.514;9.988;2022-09-17T03:31:19;5.27;;;1.60;;
14139;SDS011;7150;53.514;9.988;2022-09-17T03:33:44;4.90;;;1.67;;
14139;SDS011;7150;53.514;9.988;2022-09-17T03:36:10;6.83;;;1.60;;
14139;SDS011;7150;53.514;9.988;2022-09-17T03:38:35;4.30;;;2.07;;
14139;SDS011;7150;53.514;9.988;2022-09-17T03:41:03;7.50;;;2.10;;
14139;SDS011;7150;53.514;9.988;2022-09-17T03:43:31;7.03;;;1.77;;
14139;SDS011;7150;53.514;9.988;2022-09-17T03:45:57;8.87;;;2.87;;
14139;SDS011;7150;53.514;9.988;2022-09-17T03:48:22;7.73;;;2.33;;
14139;SDS011;7150;53.514;9.988;2022-09-17T03:50:48;10.60;;;2.53;;
14139;SDS011;7150;53.514;9.988;2022-09-17T03:53:14;7.53;;;2.10;;
14139;SDS011;7150;53.514;9.988;2022-09-17T03:55:40;6.40;;;2.20;;
14139;SDS011;7150;53.514;9.988;2022-09-17T03:58:06;7.30;;;2.10;;
14139;SDS011;7150;53.514;9.988;2022-09-17T04:00:32;4.47;;;1.70;;
14139;SDS011;7150;53.514;9.988;2022-09-17T04:02:57;5.43;;;2.10;;
14139;SDS011;7150;53.514;9.988;2022-09-17T04:05:23;8.77;;;2.20;;
14139;SDS011;7150;53.514;9.988;2022-09-17T04:07:48;4.20;;;1.70;;
14139;SDS011;7150;53.514;9.988;2022-09-17T04:10:14;4.10;;;1.60;;
14139;SDS011;7150;53.514;9.988;2022-09-17T04:12:40;5.13;;;1.60;;
14139;SDS011;7150;53.514;9.988;2022-09-17T04:15:05;4.67;;;1.40;;
14139;SDS011;7150;53.514;9.988;2022-09-17T04:17:32;5.47;;;1.37;;
14139;SDS011;7150;53.514;9.988;2022-09-17T04:19:57;5.57;;;1.70;;
14139;SDS011;7150;53.514;9.988;2022-09-17T04:22:23;9.10;;;2.10;;
14139;SDS011;7150;53.514;9.988;2022-09-17T04:24:49;8.97;;;1.60;;
14139;SDS011;7150;53.514;9.988;2022-09-17T04:27:15;4.13;;;1.50;;
14139;SDS011;7150;53.514;9.988;2022-09-17T04:29:40;8.27;;;1.70;;
14139;SDS011;7150;53.514;9.988;2022-09-17T04:32:06;4.60;;;1.20;;
14139;SDS011;7150;53.514;9.988;2022-09-17T04:34:31;8.20;;;2.07;;
14139;SDS011;7150;53.514;9.988;2022-09-17T04:36:57;6.13;;;1.83;;
14139;SDS011;7150;53.514;9.988;2022-09-17T04:39:22;5.13;;;1.73;;
14139;SDS011;7150;53.514;9.988;2022-09-17T04:41:48;5.50;;;2.47;;
14139;SDS011;7150;53.514;9.988;2022-09-17T04:44:13;4.10;;;1.80;;
14139;SDS011;7150;53.514;9.988;2022-09-17T04:46:39;6.60;;;1.83;;
14139;SDS011;7150;53.514;9.988;2022-09-17T04:49:04;6.23;;;1.90;;
14139;SDS011;7150;53.514;9.988;2022-09-17T04:51:29;6.17;;;1.77;;
14139;SDS011;7150;53.514;9.988;2022-09-17T04:53:55;5.67;;;1.70;;
14139;SDS011;7150;53.514;9.988;2022-09-17T04:56:20;6.83;;;2.03;;
14139;SDS011;7150;53.514;9.988;2022-09-17T04:58:46;8.10;;;1.70;;
14139;SDS011;7150;53.514;9.988;2022-09-17T05:01:11;7.97;;;2.07;;
14139;SDS011;7150;53.514;9.988;2022-09-17T05:03:38;8.33;;;1.90;;
14139;SDS011;7150;53.514;9.988;2022-09-17T05:06:03;8.37;;;1.60;;
14139;SDS011;7150;53.514;9.988;2022-09-17T05:08:29;3.87;;;1.63;;
14139;SDS011;7150;53.514;9.988;2022-09-17T05:10:54;5.87;;;1.70;;
14139;SDS011;7150;53.514;9.988;2022-09-17T05:13:20;5.13;;;1.70;;
14139;SDS011;7150;53.514;9.988;2022-09-17T05:15:46;4.33;;;1.60;;
14139;SDS011;7150;53.514;9.988;2022-09-17T05:18:11;4.70;;;1.80;;
14139;SDS011;7150;53.514;9.988;2022-09-17T05:20:37;7.97;;;2.17;;
14139;SDS011;7150;53.514;9.988;2022-09-17T05:23:03;5.07;;;1.67;;
14139;SDS011;7150;53.514;9.988;2022-09-17T05:25:29;6.77;;;1.60;;
14139;SDS011;7150;53.514;9.988;2022-09-17T05:27:54;10.73;;;2.27;;
14139;SDS011;7150;53.514;9.988;2022-09-17T05:30:20;7.83;;;2.00;;
14139;SDS011;7150;53.514;9.988;2022-09-17T05:32:46;8.40;;;2.13;;
14139;SDS011;7150;53.514;9.988;2022-09-17T05:35:11;6.60;;;1.73;;
14139;SDS011;7150;53.514;9.988;2022-09-17T05:37:37;5.60;;;1.90;;
14139;SDS011;7150;53.514;9.988;2022-09-17T05:40:03;6.23;;;1.33;;
14139;SDS011;7150;53.514;9.988;2022-09-17T05:42:31;7.43;;;1.73;;
14139;SDS011;7150;53.514;9.988;2022-09-17T05:44:57;8.87;;;1.87;;
14139;SDS011;7150;53.514;9.988;2022-09-17T05:47:23;5.87;;;1.43;;
14139;SDS011;7150;53.514;9.988;2022-09-17T05:49:48;5.77;;;2.03;;
14139;SDS011;7150;53.514;9.988;2022-09-17T05:52:14;4.67;;;1.80;;
14139;SDS011;7150;53.514;9.988;2022-09-17T05:54:40;10.57;;;2.10;;
14139;SDS011;7150;53.514;9.988;2022-09-17T05:57:05;8.37;;;1.90;;
14139;SDS011;7150;53.514;9.988;2022-09-17T05:59:31;7.80;;;2.20;;
14139;SDS011;7150;53.514;9.988;2022-09-17T06:01:57;6.07;;;2.00;;
14139;SDS011;7150;53.514;9.988;2022-09-17T06:04:22;4.67;;;1.63;;
14139;SDS011;7150;53.514;9.988;2022-09-17T06:06:48;8.10;;;1.60;;
14139;SDS011;7150;53.514;9.988;2022-09-17T06:09:14;7.07;;;1.83;;
14139;SDS011;7150;53.514;9.988;2022-09-17T06:11:39;7.63;;;1.60;;
14139;SDS011;7150;53.514;9.988;2022-09-17T06:14:05;8.73;;;1.30;;
14139;SDS011;7150;53.514;9.988;2022-09-17T06:16:30;5.83;;;1.50;;
14139;SDS011;7150;53.514;9.988;2022-09-17T06:18:56;5.77;;;1.63;;
14139;SDS011;7150;53.514;9.988;2022-09-17T06:21:21;5.30;;;1.93;;
14139;SDS011;7150;53.514;9.988;2022-09-17T06:23:48;5.13;;;1.67;;
14139;SDS011;7150;53.514;9.988;2022-09-17T06:26:14;5.40;;;1.40;;
14139;SDS011;7150;53.514;9.988;2022-09-17T06:28:40;7.60;;;1.80;;
14139;SDS011;7150;53.514;9.988;2022-09-17T06:31:06;5.20;;;1.50;;
14139;SDS011;7150;53.514;9.988;2022-09-17T06:33:33;7.60;;;2.13;;
14139;SDS011;7150;53.514;9.988;2022-09-17T06:36:00;6.53;;;2.03;;
14139;SDS011;7150;53.514;9.988;2022-09-17T06:38:29;3.77;;;1.50;;
14139;SDS011;7150;53.514;9.988;2022-09-17T06:40:56;6.10;;;1.60;;
14139;SDS011;7150;53.514;9.988;2022-09-17T06:43:21;8.87;;;1.60;;
14139;SDS011;7150;53.514;9.988;2022-09-17T06:45:51;6.03;;;1.67;;
14139;SDS011;7150;53.514;9.988;2022-09-17T06:48:17;4.10;;;1.87;;
14139;SDS011;7150;53.514;9.988;2022-09-17T06:50:43;4.97;;;1.70;;
14139;SDS011;7150;53.514;9.988;2022-09-17T06:53:08;3.00;;;1.20;;
14139;SDS011;7150;53.514;9.988;2022-09-17T06:55:34;6.73;;;1.70;;
14139;SDS011;7150;53.514;9.988;2022-09-17T06:57:59;4.87;;;1.60;;
14139;SDS011;7150;53.514;9.988;2022-09-17T07:00:25;7.33;;;1.43;;
14139;SDS011;7150;53.514;9.988;2022-09-17T07:02:57;5.10;;;1.80;;
14139;SDS011;7150;53.514;9.988;2022-09-17T07:05:23;3.90;;;1.67;;
14139;SDS011;7150;53.514;9.988;2022-09-17T07:07:50;4.60;;;1.40;;
14139;SDS011;7150;53.514;9.988;2022-09-17T07:10:16;7.23;;;2.17;;
14139;SDS011;7150;53.514;9.988;2022-09-17T07:12:41;6.63;;;2.10;;
14139;SDS011;7150;53.514;9.988;2022-09-17T07:15:07;3.17;;;1.60;;
14139;SDS011;7150;53.514;9.988;2022-09-17T07:17:37;4.83;;;1.40;;
14139;SDS011;7150;53.514;9.988;2022-09-17T07:20:04;2.33;;;1.30;;
14139;SDS011;7150;53.514;9.988;2022-09-17T07:22:31;1.60;;;0.73;;
14139;SDS011;7150;53.514;9.988;2022-09-17T07:24:56;2.73;;;1.27;;
14139;SDS011;7150;53.514;9.988;2022-09-17T07:27:22;2.53;;;1.20;;
14139;SDS011;7150;53.514;9.988;2022-09-17T07:29:47;4.40;;;1.20;;
14139;SDS011;7150;53.514;9.988;2022-09-17T07:32:13;6.50;;;1.90;;
14139;SDS011;7150;53.514;9.988;2022-09-17T07:34:38;4.20;;;1.23;;
14139;SDS011;7150;53.514;9.988;2022-09-17T07:37:04;6.10;;;1.23;;
14139;SDS011;7150;53.514;9.988;2022-09-17T07:39:29;9.03;;;1.90;;
14139;SDS011;7150;53.514;9.988;2022-09-17T07:41:55;6.47;;;1.80;;
14139;SDS011;7150;53.514;9.988;2022-09-17T07:44:20;4.17;;;1.53;;
14139;SDS011;7150;53.514;9.988;2022-09-17T07:46:46;3.90;;;1.20;;
14139;SDS011;7150;53.514;9.988;2022-09-17T07:49:12;5.20;;;1.40;;
14139;SDS011;7150;53.514;9.988;2022-09-17T07:51:37;3.60;;;1.23;;
14139;SDS011;7150;53.514;9.988;2022-09-17T07:54:03;4.07;;;1.30;;
14139;SDS011;7150;53.514;9.988;2022-09-17T07:56:30;2.93;;;1.13;;
14139;SDS011;7150;53.514;9.988;2022-09-17T07:58:55;4.90;;;1.37;;
14139;SDS011;7150;53.514;9.988;2022-09-17T08:01:21;3.17;;;1.53;;
14139;SDS011;7150;53.514;9.988;2022-09-17T08:03:48;4.50;;;1.40;;
14139;SDS011;7150;53.514;9.988;2022-09-17T08:06:16;6.33;;;1.70;;
14139;SDS011;7150;53.514;9.988;2022-09-17T08:08:43;3.57;;;1.47;;
14139;SDS011;7150;53.514;9.988;2022-09-17T08:11:10;2.63;;;1.50;;
14139;SDS011;7150;53.514;9.988;2022-09-17T08:13:38;5.03;;;1.67;;
14139;SDS011;7150;53.514;9.988;2022-09-17T08:16:05;3.93;;;1.37;;
14139;SDS011;7150;53.514;9.988;2022-09-17T08:18:34;5.40;;;1.53;;
14139;SDS011;7150;53.514;9.988;2022-09-17T08:21:01;5.67;;;1.77;;
14139;SDS011;7150;53.514;9.988;2022-09-17T08:23:28;4.63;;;1.70;;
14139;SDS011;7150;53.514;9.988;2022-09-17T08:25:55;9.07;;;1.80;;
14139;SDS011;7150;53.514;9.988;2022-09-17T08:28:23;5.80;;;1.97;;
14139;SDS011;7150;53.514;9.988;2022-09-17T08:30:53;6.00;;;1.50;;
14139;SDS011;7150;53.514;9.988;2022-09-17T08:33:19;7.17;;;1.60;;
14139;SDS011;7150;53.514;9.988;2022-09-17T08:35:54;5.40;;;1.63;;
14139;SDS011;7150;53.514;9.988;2022-09-17T08:38:23;6.87;;;1.60;;
14139;SDS011;7150;53.514;9.988;2022-09-17T08:40:53;4.33;;;1.40;;
14139;SDS011;7150;53.514;9.988;2022-09-17T08:43:26;3.93;;;1.00;;
14139;SDS011;7150;53.514;9.988;2022-09-17T08:45:55;6.43;;;1.77;;
14139;SDS011;7150;53.514;9.988;2022-09-17T08:48:22;3.83;;;1.20;;
14139;SDS011;7150;53.514;9.988;2022-09-17T08:50:52;4.07;;;1.20;;
14139;SDS011;7150;53.514;9.988;2022-09-17T08:53:20;2.80;;;1.40;;
14139;SDS011;7150;53.514;9.988;2022-09-17T08:58:49;4.83;;;1.40;;
14139;SDS011;7150;53.514;9.988;2022-09-17T09:01:30;3.73;;;1.40;;
14139;SDS011;7150;53.514;9.988;2022-09-17T09:04:44;3.33;;;1.23;;
14139;SDS011;7150;53.514;9.988;2022-09-17T09:06:50;3.57;;;1.07;;
14139;SDS011;7150;53.514;9.988;2022-09-17T09:09:27;6.60;;;1.20;;
14139;SDS011;7150;53.514;9.988;2022-09-17T09:12:03;3.73;;;1.13;;
14139;SDS011;7150;53.514;9.988;2022-09-17T09:14:36;5.50;;;1.73;;
14139;SDS011;7150;53.514;9.988;2022-09-17T09:17:10;3.10;;;1.33;;
14139;SDS011;7150;53.514;9.988;2022-09-17T09:19:40;5.37;;;1.00;;
14139;SDS011;7150;53.514;9.988;2022-09-17T09:25:04;2.77;;;1.17;;
14139;SDS011;7150;53.514;9.988;2022-09-17T09:27:48;2.37;;;0.77;;
14139;SDS011;7150;53.514;9.988;2022-09-17T09:30:23;0.87;;;0.57;;
14139;SDS011;7150;53.514;9.988;2022-09-17T09:32:59;1.43;;;0.80;;
14139;SDS011;7150;53.514;9.988;2022-09-17T09:35:42;1.67;;;0.73;;
14139;SDS011;7150;53.514;9.988;2022-09-17T09:57:47;1.77;;;0.63;;
14139;SDS011;7150;53.514;9.988;2022-09-17T10:00:35;0.80;;;0.60;;
14139;SDS011;7150;53.514;9.988;2022-09-17T10:03:13;1.30;;;0.90;;
14139;SDS011;7150;53.514;9.988;2022-09-17T10:05:57;1.97;;;1.10;;
14139;SDS011;7150;53.514;9.988;2022-09-17T10:08:25;0.90;;;0.63;;
14139;SDS011;7150;53.514;9.988;2022-09-17T10:10:52;2.20;;;1.23;;
14139;SDS011;7150;53.514;9.988;2022-09-17T10:13:30;1.53;;;1.20;;
14139;SDS011;7150;53.514;9.988;2022-09-17T10:16:07;2.37;;;1.00;;
14139;SDS011;7150;53.514;9.988;2022-09-17T10:18:45;2.80;;;0.97;;
14139;SDS011;7150;53.514;9.988;2022-09-17T10:21:19;5.07;;;0.93;;
14139;SDS011;7150;53.514;9.988;2022-09-17T10:23:46;1.70;;;0.70;;
14139;SDS011;7150;53.514;9.988;2022-09-17T10:26:21;1.13;;;0.70;;
14139;SDS011;7150;53.514;9.988;2022-09-17T10:28:52;1.80;;;0.70;;
14139;SDS011;7150;53.514;9.988;2022-09-17T10:31:18;2.37;;;0.90;;
14139;SDS011;7150;53.514;9.988;2022-09-17T10:33:57;3.13;;;0.90;;
14139;SDS011;7150;53.514;9.988;2022-09-17T10:39:52;3.20;;;1.03;;
14139;SDS011;7150;53.514;9.988;2022-09-17T10:41:53;2.77;;;1.13;;
14139;SDS011;7150;53.514;9.988;2022-09-17T10:44:20;1.63;;;0.77;;
14139;SDS011;7150;53.514;9.988;2022-09-17T10:46:47;2.17;;;0.87;;
14139;SDS011;7150;53.514;9.988;2022-09-17T10:52:05;1.27;;;0.60;;
14139;SDS011;7150;53.514;9.988;2022-09-17T10:57:23;2.23;;;0.83;;
14139;SDS011;7150;53.514;9.988;2022-09-17T11:00:18;3.37;;;1.40;;
14139;SDS011;7150;53.514;9.988;2022-09-17T11:11:21;2.83;;;0.90;;
14139;SDS011;7150;53.514;9.988;2022-09-17T11:22:24;4.87;;;1.27;;
14139;SDS011;7150;53.514;9.988;2022-09-17T11:24:54;2.57;;;1.07;;
14139;SDS011;7150;53.514;9.988;2022-09-17T11:30:20;2.93;;;1.10;;
14139;SDS011;7150;53.514;9.988;2022-09-17T11:38:11;4.83;;;1.07;;
14139;SDS011;7150;53.514;9.988;2022-09-17T11:40:57;3.13;;;1.10;;
14139;SDS011;7150;53.514;9.988;2022-09-17T11:43:29;0.80;;;0.80;;
14139;SDS011;7150;53.514;9.988;2022-09-17T11:46:07;1.23;;;0.90;;
14139;SDS011;7150;53.514;9.988;2022-09-17T11:48:51;1.20;;;0.93;;
14139;SDS011;7150;53.514;9.988;2022-09-17T11:51:31;4.07;;;1.20;;
14139;SDS011;7150;53.514;9.988;2022-09-17T11:54:25;1.63;;;0.93;;
14139;SDS011;7150;53.514;9.988;2022-09-17T11:57:14;2.53;;;0.97;;
14139;SDS011;7150;53.514;9.988;2022-09-17T11:59:43;3.80;;;1.10;;
14139;SDS011;7150;53.514;9.988;2022-09-17T12:04:56;3.33;;;1.07;;
14139;SDS011;7150;53.514;9.988;2022-09-17T12:12:48;3.83;;;1.20;;
14139;SDS011;7150;53.514;9.988;2022-09-17T12:15:21;3.23;;;1.00;;
14139;SDS011;7150;53.514;9.988;2022-09-17T12:17:51;3.50;;;1.00;;
14139;SDS011;7150;53.514;9.988;2022-09-17T12:20:40;4.97;;;1.77;;
14139;SDS011;7150;53.514;9.988;2022-09-17T12:23:12;6.90;;;1.27;;
14139;SDS011;7150;53.514;9.988;2022-09-17T12:25:44;4.60;;;1.40;;
14139;SDS011;7150;53.514;9.988;2022-09-17T12:28:20;3.33;;;1.30;;
14139;SDS011;7150;53.514;9.988;2022-09-17T12:30:57;3.67;;;1.60;;
14139;SDS011;7150;53.514;9.988;2022-09-17T12:33:40;3.50;;;1.30;;
14139;SDS011;7150;53.514;9.988;2022-09-17T12:50:24;2.17;;;0.83;;
14139;SDS011;7150;53.514;9.988;2022-09-17T12:53:20;3.47;;;0.93;;
14139;SDS011;7150;53.514;9.988;2022-09-17T12:55:54;3.97;;;1.40;;
14139;SDS011;7150;53.514;9.988;2022-09-17T12:58:32;3.17;;;1.57;;
14139;SDS011;7150;53.514;9.988;2022-09-17T13:04:24;2.20;;;1.03;;
14139;SDS011;7150;53.514;9.988;2022-09-17T13:10:25;3.90;;;1.43;;
14139;SDS011;7150;53.514;9.988;2022-09-17T13:15:45;6.63;;;1.63;;
14139;SDS011;7150;53.514;9.988;2022-09-17T13:21:10;4.13;;;1.23;;
14139;SDS011;7150;53.514;9.988;2022-09-17T13:23:45;3.37;;;1.20;;
14139;SDS011;7150;53.514;9.988;2022-09-17T13:26:14;3.67;;;1.10;;
14139;SDS011;7150;53.514;9.988;2022-09-17T13:28:44;3.10;;;1.13;;
14139;SDS011;7150;53.514;9.988;2022-09-17T13:31:12;1.90;;;0.70;;
14139;SDS011;7150;53.514;9.988;2022-09-17T13:33:58;2.73;;;1.10;;
14139;SDS011;7150;53.514;9.988;2022-09-17T13:36:34;2.07;;;0.90;;
14139;SDS011;7150;53.514;9.988;2022-09-17T13:39:01;4.50;;;1.10;;
14139;SDS011;7150;53.514;9.988;2022-09-17T13:41:27;1.67;;;0.90;;
14139;SDS011;7150;53.514;9.988;2022-09-17T13:43:55;2.93;;;1.13;;
14139;SDS011;7150;53.514;9.988;2022-09-17T13:46:21;2.77;;;1.20;;
14139;SDS011;7150;53.514;9.988;2022-09-17T13:48:50;4.63;;;1.20;;
14139;SDS011;7150;53.514;9.988;2022-09-17T13:53:54;2.40;;;1.20;;
14139;SDS011;7150;53.514;9.988;2022-09-17T13:56:28;5.60;;;1.00;;
14139;SDS011;7150;53.514;9.988;2022-09-17T13:59:16;2.57;;;1.37;;
14139;SDS011;7150;53.514;9.988;2022-09-17T14:18:01;5.20;;;1.40;;
14139;SDS011;7150;53.514;9.988;2022-09-17T14:20:50;3.23;;;1.00;;
14139;SDS011;7150;53.514;9.988;2022-09-17T14:23:17;2.03;;;0.90;;
14139;SDS011;7150;53.514;9.988;2022-09-17T14:25:51;1.27;;;0.93;;
14139;SDS011;7150;53.514;9.988;2022-09-17T14:31:12;0.77;;;0.73;;
14139;SDS011;7150;53.514;9.988;2022-09-17T14:33:48;1.80;;;0.80;;
14139;SDS011;7150;53.514;9.988;2022-09-17T14:36:14;1.77;;;1.23;;
14139;SDS011;7150;53.514;9.988;2022-09-17T14:38:49;1.27;;;0.97;;
14139;SDS011;7150;53.514;9.988;2022-09-17T14:41:19;5.37;;;2.00;;
14139;SDS011;7150;53.514;9.988;2022-09-17T14:44:01;2.20;;;1.70;;
14139;SDS011;7150;53.514;9.988;2022-09-17T14:49:19;4.67;;;2.23;;
14139;SDS011;7150;53.514;9.988;2022-09-17T14:51:47;3.97;;;1.70;;
14139;SDS011;7150;53.514;9.988;2022-09-17T14:54:14;4.33;;;1.60;;
14139;SDS011;7150;53.514;9.988;2022-09-17T14:57:01;1.43;;;1.13;;
14139;SDS011;7150;53.514;9.988;2022-09-17T14:59:45;1.80;;;1.03;;
14139;SDS011;7150;53.514;9.988;2022-09-17T15:05:23;1.83;;;1.03;;
14139;SDS011;7150;53.514;9.988;2022-09-17T15:07:50;2.83;;;1.40;;
14139;SDS011;7150;53.514;9.988;2022-09-17T15:10:29;2.77;;;0.83;;
14139;SDS011;7150;53.514;9.988;2022-09-17T15:12:55;4.53;;;1.33;;
14139;SDS011;7150;53.514;9.988;2022-09-17T15:15:22;3.33;;;1.90;;
14139;SDS011;7150;53.514;9.988;2022-09-17T15:17:50;2.63;;;1.30;;
14139;SDS011;7150;53.514;9.988;2022-09-17T15:20:18;2.53;;;1.47;;
14139;SDS011;7150;53.514;9.988;2022-09-17T15:22:51;3.03;;;1.47;;
14139;SDS011;7150;53.514;9.988;2022-09-17T15:25:34;3.10;;;1.30;;
14139;SDS011;7150;53.514;9.988;2022-09-17T15:28:04;3.23;;;1.37;;
14139;SDS011;7150;53.514;9.988;2022-09-17T15:30:39;1.93;;;1.03;;
14139;SDS011;7150;53.514;9.988;2022-09-17T15:33:08;2.43;;;1.60;;
14139;SDS011;7150;53.514;9.988;2022-09-17T15:35:35;3.83;;;1.70;;
14139;SDS011;7150;53.514;9.988;2022-09-17T15:38:02;3.70;;;1.30;;
14139;SDS011;7150;53.514;9.988;2022-09-17T15:40:44;3.40;;;1.60;;
14139;SDS011;7150;53.514;9.988;2022-09-17T15:43:15;2.70;;;1.50;;
14139;SDS011;7150;53.514;9.988;2022-09-17T15:45:47;4.00;;;1.33;;
14139;SDS011;7150;53.514;9.988;2022-09-17T15:48:46;2.30;;;1.23;;
14139;SDS011;7150;53.514;9.988;2022-09-17T15:51:11;3.13;;;1.40;;
14139;SDS011;7150;53.514;9.988;2022-09-17T15:53:51;6.10;;;1.90;;
14139;SDS011;7150;53.514;9.988;2022-09-17T15:56:25;3.23;;;1.30;;
14139;SDS011;7150;53.514;9.988;2022-09-17T15:59:03;3.97;;;1.67;;
14139;SDS011;7150;53.514;9.988;2022-09-17T16:01:48;2.57;;;1.30;;
14139;SDS011;7150;53.514;9.988;2022-09-17T16:09:34;2.30;;;1.50;;
14139;SDS011;7150;53.514;9.988;2022-09-17T16:12:02;0.77;;;0.70;;
14139;SDS011;7150;53.514;9.988;2022-09-17T16:14:28;2.57;;;1.20;;
14139;SDS011;7150;53.514;9.988;2022-09-17T16:16:53;1.20;;;0.90;;
14139;SDS011;7150;53.514;9.988;2022-09-17T16:19:20;2.90;;;1.00;;
14139;SDS011;7150;53.514;9.988;2022-09-17T16:21:46;1.67;;;0.93;;
14139;SDS011;7150;53.514;9.988;2022-09-17T16:24:11;2.03;;;0.93;;
14139;SDS011;7150;53.514;9.988;2022-09-17T16:26:36;1.60;;;1.30;;
14139;SDS011;7150;53.514;9.988;2022-09-17T16:29:13;1.63;;;1.00;;
14139;SDS011;7150;53.514;9.988;2022-09-17T16:31:41;3.73;;;1.47;;
14139;SDS011;7150;53.514;9.988;2022-09-17T16:34:08;1.97;;;1.40;;
14139;SDS011;7150;53.514;9.988;2022-09-17T16:36:34;4.40;;;1.47;;
14139;SDS011;7150;53.514;9.988;2022-09-17T16:38:59;3.43;;;1.43;;
14139;SDS011;7150;53.514;9.988;2022-09-17T16:41:25;3.03;;;1.80;;
14139;SDS011;7150;53.514;9.988;2022-09-17T16:43:50;2.33;;;1.30;;
14139;SDS011;7150;53.514;9.988;2022-09-17T16:46:16;2.77;;;1.30;;
14139;SDS011;7150;53.514;9.988;2022-09-17T16:48:41;3.50;;;1.57;;
14139;SDS011;7150;53.514;9.988;2022-09-17T16:51:09;3.23;;;1.80;;
14139;SDS011;7150;53.514;9.988;2022-09-17T16:53:36;2.80;;;1.60;;
14139;SDS011;7150;53.514;9.988;2022-09-17T16:56:08;2.97;;;1.37;;
14139;SDS011;7150;53.514;9.988;2022-09-17T16:58:34;2.87;;;1.43;;
14139;SDS011;7150;53.514;9.988;2022-09-17T17:01:13;4.40;;;1.53;;
14139;SDS011;7150;53.514;9.988;2022-09-17T17:03:39;2.40;;;1.13;;
14139;SDS011;7150;53.514;9.988;2022-09-17T17:06:05;3.57;;;1.80;;
14139;SDS011;7150;53.514;9.988;2022-09-17T17:08:39;3.00;;;1.90;;
14139;SDS011;7150;53.514;9.988;2022-09-17T17:11:04;2.67;;;1.60;;
14139;SDS011;7150;53.514;9.988;2022-09-17T17:13:30;2.90;;;1.13;;
14139;SDS011;7150;53.514;9.988;2022-09-17T17:15:55;3.23;;;1.20;;
14139;SDS011;7150;53.514;9.988;2022-09-17T17:18:21;2.43;;;0.97;;
14139;SDS011;7150;53.514;9.988;2022-09-17T17:20:48;0.80;;;0.80;;
14139;SDS011;7150;53.514;9.988;2022-09-17T17:23:14;3.73;;;1.73;;
14139;SDS011;7150;53.514;9.988;2022-09-17T17:25:40;2.33;;;0.93;;
14139;SDS011;7150;53.514;9.988;2022-09-17T17:28:05;2.17;;;1.10;;
14139;SDS011;7150;53.514;9.988;2022-09-17T17:30:31;2.23;;;1.10;;
14139;SDS011;7150;53.514;9.988;2022-09-17T17:32:56;1.37;;;1.00;;
14139;SDS011;7150;53.514;9.988;2022-09-17T17:35:24;3.60;;;1.20;;
14139;SDS011;7150;53.514;9.988;2022-09-17T17:37:50;1.73;;;1.23;;
14139;SDS011;7150;53.514;9.988;2022-09-17T17:40:16;2.33;;;1.30;;
14139;SDS011;7150;53.514;9.988;2022-09-17T17:42:41;1.87;;;1.20;;
14139;SDS011;7150;53.514;9.988;2022-09-17T17:45:08;2.10;;;1.47;;
14139;SDS011;7150;53.514;9.988;2022-09-17T17:47:34;2.20;;;1.20;;
14139;SDS011;7150;53.514;9.988;2022-09-17T17:50:00;2.73;;;1.37;;
14139;SDS011;7150;53.514;9.988;2022-09-17T17:52:26;2.03;;;1.33;;
14139;SDS011;7150;53.514;9.988;2022-09-17T17:54:51;1.93;;;1.37;;
14139;SDS011;7150;53.514;9.988;2022-09-17T17:57:17;1.73;;;1.13;;